Time;durP1;ratioP1;P1;durP2;ratioP2;P2;SDS_P1;SDS_P2;PMS_P1;PMS_P2;Temp;Humidity;BMP_temperature;BMP_pressure;BME280_temperature;BME280_humidity;BME280_pressure;Samples;Min_cycle;Max_cycle;Signal;HPM_P1;HPM_P2
2023/09/11 00:01:32;;;;;;;19.17;12.40;;;;;;;28.42;59.75;101457.06;5012025;28;20037;-50
2023/09/11 00:03:58;;;;;;;17.45;12.20;;;;;;;28.27;60.50;101464.06;5011017;28;20085;-51
2023/09/11 00:06:27;;;;;;;15.40;11.30;;;;;;;28.33;60.49;101458.38;5013436;28;20038;-43
2023/09/11 00:08:53;;;;;;;23.42;12.57;;;;;;;28.31;60.70;101452.22;5012329;28;20121;-47
2023/09/11 00:11:18;;;;;;;20.50;11.27;;;;;;;28.26;60.69;101456.97;5010595;28;20120;-45
2023/09/11 00:13:44;;;;;;;17.50;11.85;;;;;;;28.18;61.03;101451.97;5011707;28;20513;-45
2023/09/11 00:16:10;;;;;;;17.65;12.00;;;;;;;28.12;61.18;101448.69;5010163;28;20030;-45
2023/09/11 00:18:37;;;;;;;16.10;11.10;;;;;;;28.09;61.30;101451.56;5011760;28;20037;-45
2023/09/11 00:21:03;;;;;;;19.20;10.63;;;;;;;28.08;61.36;101453.38;5014137;28;20044;-51
2023/09/11 00:23:28;;;;;;;18.70;11.32;;;;;;;27.96;61.46;101448.63;5016161;28;20125;-48
2023/09/11 00:25:54;;;;;;;15.00;10.90;;;;;;;27.87;62.16;101450.91;5015136;28;20046;-47
2023/09/11 00:28:19;;;;;;;20.70;11.98;;;;;;;27.92;61.80;101443.50;5014632;28;20032;-49
2023/09/11 00:30:44;;;;;;;16.77;11.15;;;;;;;27.85;61.96;101448.28;5015007;28;20098;-45
2023/09/11 00:33:10;;;;;;;19.75;11.43;;;;;;;27.82;62.08;101445.75;5015468;28;20034;-47
2023/09/11 00:35:36;;;;;;;14.43;11.07;;;;;;;27.79;62.03;101444.09;5015830;28;20057;-49
2023/09/11 00:38:01;;;;;;;19.20;10.75;;;;;;;27.74;62.52;101446.16;5015152;28;20037;-44
2023/09/11 00:40:27;;;;;;;16.83;10.73;;;;;;;27.73;62.52;101443.53;5015821;28;20308;-45
2023/09/11 00:42:52;;;;;;;16.23;10.95;;;;;;;27.74;62.44;101439.91;5014579;28;20067;-48
2023/09/11 00:45:18;;;;;;;17.60;11.38;;;;;;;27.68;62.65;101434.84;5014666;28;21045;-48
2023/09/11 00:47:45;;;;;;;18.20;11.77;;;;;;;27.61;63.13;101436.97;5014052;28;20408;-49
2023/09/11 00:50:13;;;;;;;17.58;11.52;;;;;;;27.57;63.68;101435.34;5013487;28;20038;-45
2023/09/11 00:52:39;;;;;;;15.88;11.48;;;;;;;27.57;63.51;101439.88;5014489;28;20407;-49
2023/09/11 00:55:07;;;;;;;19.40;11.30;;;;;;;27.58;63.46;101434.41;5013746;28;20037;-46
2023/09/11 00:57:32;;;;;;;18.23;11.10;;;;;;;27.59;63.14;101430.81;5014725;28;20045;-48
2023/09/11 00:59:58;;;;;;;14.93;10.25;;;;;;;27.56;63.43;101430.97;5014272;28;20034;-46
2023/09/11 01:02:24;;;;;;;14.45;10.98;;;;;;;27.52;63.20;101424.00;5013038;28;20050;-48
2023/09/11 01:04:49;;;;;;;18.92;11.95;;;;;;;27.42;63.72;101418.19;5014377;28;20081;-47
2023/09/11 01:07:16;;;;;;;16.23;11.38;;;;;;;27.36;64.12;101420.31;5014418;28;20117;-47
2023/09/11 01:09:42;;;;;;;15.88;10.10;;;;;;;27.32;64.05;101416.91;5014543;28;20085;-46
2023/09/11 01:12:08;;;;;;;18.63;11.85;;;;;;;27.30;63.94;101421.47;5014096;28;20108;-46
2023/09/11 01:14:37;;;;;;;15.65;10.35;;;;;;;27.26;64.20;101411.84;5014381;28;20045;-46
2023/09/11 01:17:06;;;;;;;20.92;11.13;;;;;;;27.20;64.47;101409.44;5013555;28;20444;-44
2023/09/11 01:20:09;;;;;;;17.05;11.43;;;;;;;27.22;64.37;101406.69;5014057;28;20148;-49
2023/09/11 01:23:12;;;;;;;15.75;11.20;;;;;;;27.19;64.59;101410.41;5013890;28;20160;-47
2023/09/11 01:26:02;;;;;;;15.57;11.15;;;;;;;27.20;64.34;101408.59;5013820;28;20065;-50
2023/09/11 01:28:46;;;;;;;16.17;11.60;;;;;;;27.16;64.61;101405.16;5014093;28;20042;-47
2023/09/11 01:31:12;;;;;;;20.75;12.65;;;;;;;26.95;65.60;101400.84;5013030;28;20046;-52
2023/09/11 01:33:38;;;;;;;19.35;12.30;;;;;;;27.12;65.27;101403.59;5014028;28;20045;-48
2023/09/11 01:36:03;;;;;;;22.02;11.77;;;;;;;27.20;64.81;101398.72;5012900;28;20042;-47
2023/09/11 01:38:29;;;;;;;19.17;12.10;;;;;;;27.17;64.84;101389.97;5014033;28;20034;-49
2023/09/11 01:40:58;;;;;;;20.52;12.80;;;;;;;27.29;64.46;101397.44;5013548;28;20128;-40
2023/09/11 01:43:29;;;;;;;20.17;12.95;;;;;;;27.22;64.55;101393.31;5013712;28;20049;-45
2023/09/11 01:45:54;;;;;;;24.40;13.35;;;;;;;27.25;64.04;101387.81;5015184;28;20049;-44
2023/09/11 01:48:22;;;;;;;19.38;13.35;;;;;;;27.05;64.72;101383.41;5014215;28;20484;-44
2023/09/11 01:50:48;;;;;;;16.83;13.40;;;;;;;27.15;64.40;101381.16;5014618;28;20050;-44
2023/09/11 01:53:14;;;;;;;19.73;13.05;;;;;;;26.82;65.22;101379.09;5013623;28;20484;-45
2023/09/11 01:55:41;;;;;;;22.60;13.30;;;;;;;26.76;65.18;101370.47;5013973;28;20048;-45
2023/09/11 01:58:07;;;;;;;18.00;13.70;;;;;;;27.12;64.41;101370.59;5013374;28;20411;-46
2023/09/11 02:00:32;;;;;;;20.35;14.63;;;;;;;27.01;64.87;101366.63;5013587;28;20038;-46
2023/09/11 02:02:57;;;;;;;20.52;13.52;;;;;;;27.04;64.29;101360.25;5013652;28;20041;-48
2023/09/11 02:05:23;;;;;;;20.55;13.75;;;;;;;27.32;63.44;101360.69;5013401;28;20038;-47
2023/09/11 02:07:48;;;;;;;22.75;14.40;;;;;;;27.10;64.27;101364.44;5013574;28;20049;-48
2023/09/11 02:10:13;;;;;;;22.80;14.77;;;;;;;27.22;63.87;101361.19;5013082;28;20038;-51
2023/09/11 02:12:39;;;;;;;25.52;14.30;;;;;;;26.98;64.68;101358.72;5014184;28;20038;-50
2023/09/11 02:15:06;;;;;;;18.77;13.85;;;;;;;27.18;64.20;101360.47;5012515;28;20038;-46
2023/09/11 02:17:31;;;;;;;21.50;14.05;;;;;;;27.08;64.02;101352.97;5013427;28;20083;-49
2023/09/11 02:19:56;;;;;;;19.83;13.82;;;;;;;26.96;64.78;101357.94;5013351;28;20124;-47
2023/09/11 02:22:22;;;;;;;20.02;13.68;;;;;;;27.15;64.09;101352.56;5011487;28;20484;-47
2023/09/11 02:24:47;;;;;;;20.92;14.70;;;;;;;26.89;64.93;101351.16;5013657;28;20049;-48
2023/09/11 02:27:12;;;;;;;23.90;14.73;;;;;;;26.81;65.12;101350.59;5013163;28;20042;-48
2023/09/11 02:29:38;;;;;;;20.42;14.25;;;;;;;27.03;64.30;101354.03;5013018;28;20049;-45
2023/09/11 02:32:03;;;;;;;20.55;14.57;;;;;;;27.13;63.97;101359.81;5012692;28;20044;-47
2023/09/11 02:34:29;;;;;;;20.30;13.70;;;;;;;27.15;63.62;101360.59;5012712;28;20045;-49
2023/09/11 02:36:54;;;;;;;16.50;13.07;;;;;;;27.12;63.18;101360.75;5012304;28;20046;-46
2023/09/11 02:39:19;;;;;;;24.65;13.82;;;;;;;26.99;63.94;101349.78;5011024;28;20431;-46
2023/09/11 02:41:45;;;;;;;23.33;13.82;;;;;;;26.96;64.14;101349.03;5010863;28;20129;-48
2023/09/11 02:44:10;;;;;;;17.42;13.15;;;;;;;26.86;64.41;101358.41;5009896;28;20069;-46
2023/09/11 02:46:35;;;;;;;21.23;12.85;;;;;;;26.78;64.41;101350.72;5010675;28;20034;-46
2023/09/11 02:49:01;;;;;;;19.08;13.40;;;;;;;26.77;64.58;101351.69;5010984;28;20080;-45
2023/09/11 02:51:28;;;;;;;18.85;12.88;;;;;;;26.67;64.99;101337.84;5012284;28;20488;-45
2023/09/11 02:53:54;;;;;;;19.05;12.80;;;;;;;26.63;64.99;101341.63;5012834;28;20038;-50
2023/09/11 02:56:19;;;;;;;20.80;13.65;;;;;;;26.65;65.34;101344.22;5011900;28;20049;-52
2023/09/11 02:58:45;;;;;;;19.15;13.15;;;;;;;26.63;65.44;101343.41;5013337;28;20475;-45
2023/09/11 03:01:10;;;;;;;19.08;12.98;;;;;;;26.56;65.46;101340.16;5013189;28;20118;-46
2023/09/11 03:03:36;;;;;;;21.83;13.73;;;;;;;26.63;65.18;101332.72;5015422;28;20093;-47
2023/09/11 03:06:02;;;;;;;17.77;13.60;;;;;;;26.63;65.09;101328.25;5013923;28;20639;-46
2023/09/11 03:08:28;;;;;;;16.90;12.15;;;;;;;26.60;65.10;101339.06;5013481;28;20068;-44
2023/09/11 03:10:54;;;;;;;19.40;12.77;;;;;;;26.62;65.06;101330.97;5012895;28;20041;-47
2023/09/11 03:13:20;;;;;;;17.70;13.05;;;;;;;26.61;65.10;101326.56;5013348;28;20038;-45
2023/09/11 03:15:45;;;;;;;20.23;13.77;;;;;;;26.59;65.42;101315.09;5013514;28;20439;-45
2023/09/11 03:18:12;;;;;;;21.70;13.75;;;;;;;26.53;65.61;101318.03;5013537;28;20124;-46
2023/09/11 03:20:38;;;;;;;19.13;13.48;;;;;;;26.44;65.60;101316.66;5013446;28;20042;-47
2023/09/11 03:23:03;;;;;;;20.83;13.38;;;;;;;26.46;65.91;101308.56;5012831;28;20038;-48
2023/09/11 03:25:34;;;;;;;17.80;12.70;;;;;;;26.66;65.04;101303.16;5013374;28;20036;-47
2023/09/11 03:27:59;;;;;;;20.23;13.18;;;;;;;26.68;64.65;101301.28;5012529;28;20080;-49
2023/09/11 03:30:24;;;;;;;17.15;12.95;;;;;;;26.64;64.99;101305.03;5010699;28;20034;-50
2023/09/11 03:32:50;;;;;;;21.48;13.93;;;;;;;26.63;64.74;101300.63;5012725;28;20116;-45
2023/09/11 03:35:16;;;;;;;21.00;13.18;;;;;;;26.65;64.91;101296.94;5012375;28;20033;-45
2023/09/11 03:37:41;;;;;;;19.58;14.23;;;;;;;26.35;65.74;101297.50;5013100;28;20049;-48
2023/09/11 03:40:07;;;;;;;18.77;13.80;;;;;;;26.59;64.79;101299.88;5010651;28;20038;-48
2023/09/11 03:42:36;;;;;;;23.10;13.93;;;;;;;26.66;64.64;101298.66;5011060;28;20516;-48
2023/09/11 03:45:01;;;;;;;19.98;13.38;;;;;;;26.68;63.99;101298.59;5012482;28;20134;-46
2023/09/11 03:47:26;;;;;;;24.27;13.60;;;;;;;26.65;64.06;101296.94;5012299;28;20069;-49
2023/09/11 03:49:52;;;;;;;19.63;13.15;;;;;;;26.64;64.17;101299.69;5011756;28;20041;-48
2023/09/11 03:52:17;;;;;;;17.92;12.30;;;;;;;26.62;64.04;101301.56;5011611;28;20102;-47
2023/09/11 03:54:43;;;;;;;18.75;12.60;;;;;;;26.60;64.11;101288.25;5013049;28;20561;-50
2023/09/11 03:57:08;;;;;;;21.92;13.50;;;;;;;26.54;64.33;101293.00;5016765;28;20038;-45
2023/09/11 03:59:34;;;;;;;21.83;14.77;;;;;;;26.28;65.70;101291.56;5016676;28;20559;-49
2023/09/11 04:01:59;;;;;;;22.50;13.70;;;;;;;26.36;65.17;101292.06;5013542;28;20100;-48
2023/09/11 04:04:24;;;;;;;22.33;13.30;;;;;;;26.45;64.60;101280.97;5013069;28;20072;-42
2023/09/11 04:06:50;;;;;;;21.30;13.48;;;;;;;26.46;64.36;101288.03;5013507;28;20065;-42
2023/09/11 04:09:15;;;;;;;18.83;12.73;;;;;;;26.44;64.22;101281.88;5012530;28;20037;-44
2023/09/11 04:11:40;;;;;;;21.08;13.57;;;;;;;26.41;64.19;101283.84;5013640;28;20408;-40
2023/09/11 04:14:05;;;;;;;16.98;13.50;;;;;;;26.40;64.40;101290.13;5012822;28;20038;-41
2023/09/11 04:16:31;;;;;;;17.42;12.35;;;;;;;26.38;64.28;101275.97;5013172;28;20026;-40
2023/09/11 04:18:56;;;;;;;21.10;14.00;;;;;;;26.25;64.86;101289.00;5013220;28;20053;-40
2023/09/11 04:21:22;;;;;;;19.92;13.38;;;;;;;26.33;64.33;101283.31;5012603;28;20173;-43
2023/09/11 04:23:47;;;;;;;20.27;12.82;;;;;;;26.36;64.22;101283.16;5013110;28;20045;-40
2023/09/11 04:26:12;;;;;;;19.48;13.05;;;;;;;26.36;64.13;101284.03;5012491;28;20041;-40
2023/09/11 04:28:38;;;;;;;19.75;13.50;;;;;;;26.34;64.07;101290.41;5013085;28;20038;-46
2023/09/11 04:31:03;;;;;;;18.52;13.18;;;;;;;26.34;63.72;101298.44;5012507;28;20029;-41
2023/09/11 04:33:29;;;;;;;16.60;12.30;;;;;;;26.33;63.62;101289.53;5012886;28;20034;-42
2023/09/11 04:35:54;;;;;;;19.80;12.25;;;;;;;26.32;63.91;101293.13;5013092;28;20427;-41
2023/09/11 04:38:19;;;;;;;23.42;12.93;;;;;;;26.24;64.04;101290.81;5012047;28;20098;-41
2023/09/11 04:40:45;;;;;;;16.58;13.35;;;;;;;26.19;64.26;101284.78;5012616;28;20045;-41
2023/09/11 04:43:10;;;;;;;20.50;13.95;;;;;;;26.17;64.24;101281.28;5011976;28;20042;-45
2023/09/11 04:45:35;;;;;;;20.67;13.77;;;;;;;26.19;64.11;101289.25;5012580;28;20107;-41
2023/09/11 04:48:01;;;;;;;19.70;12.30;;;;;;;26.25;63.71;101289.00;5011888;28;20491;-47
2023/09/11 04:50:26;;;;;;;20.10;13.35;;;;;;;26.23;63.75;101285.50;5012531;28;20040;-41
2023/09/11 04:52:55;;;;;;;22.33;13.40;;;;;;;26.22;63.55;101287.31;5012602;28;20038;-44
2023/09/11 04:55:20;;;;;;;24.40;14.32;;;;;;;26.25;63.69;101289.00;5011931;28;20065;-40
2023/09/11 04:57:46;;;;;;;19.17;11.88;;;;;;;26.30;63.26;101289.66;5012384;28;20068;-44
2023/09/11 05:00:13;;;;;;;21.52;13.23;;;;;;;26.25;63.49;101289.00;5012360;28;20053;-44
2023/09/11 05:02:39;;;;;;;18.92;13.57;;;;;;;26.28;62.98;101288.88;5014746;28;20037;-40
2023/09/11 05:05:05;;;;;;;20.35;13.07;;;;;;;26.25;63.02;101297.91;5015454;28;20129;-43
2023/09/11 05:07:30;;;;;;;19.70;13.93;;;;;;;26.23;63.02;101297.09;5013179;28;20126;-43
2023/09/11 05:09:56;;;;;;;18.58;12.68;;;;;;;26.25;62.91;101289.00;5012028;28;20037;-42
2023/09/11 05:12:21;;;;;;;22.23;12.88;;;;;;;26.20;62.78;101291.00;5011842;28;20038;-40
2023/09/11 05:14:47;;;;;;;20.42;13.60;;;;;;;26.05;63.82;101288.97;5012506;28;20034;-42
2023/09/11 05:17:12;;;;;;;21.00;13.43;;;;;;;26.10;63.39;101295.03;5012438;28;20599;-42
2023/09/11 05:19:37;;;;;;;19.00;13.18;;;;;;;26.02;63.65;101295.34;5013059;28;20504;-41
2023/09/11 05:22:03;;;;;;;17.92;13.02;;;;;;;26.01;63.94;101300.75;5017035;28;20128;-41
2023/09/11 05:24:28;;;;;;;20.58;13.05;;;;;;;26.02;63.90;101305.16;5020219;28;20538;-44
2023/09/11 05:26:54;;;;;;;22.50;14.10;;;;;;;25.97;64.15;101296.50;5013028;28;20034;-41
2023/09/11 05:29:19;;;;;;;24.55;14.95;;;;;;;25.71;65.77;101309.16;5011194;28;20487;-41
2023/09/11 05:31:45;;;;;;;19.70;14.57;;;;;;;25.88;64.93;101310.22;5012186;28;20050;-41
2023/09/11 05:34:10;;;;;;;19.20;14.27;;;;;;;25.94;64.59;101310.84;5011629;28;20037;-42
2023/09/11 05:36:35;;;;;;;20.38;13.82;;;;;;;25.95;64.52;101312.56;5010635;28;20090;-39
2023/09/11 05:39:01;;;;;;;25.13;14.00;;;;;;;25.99;64.56;101310.63;5011462;28;20042;-45
2023/09/11 05:41:26;;;;;;;21.83;13.45;;;;;;;26.03;64.33;101310.44;5011588;28;20038;-40
2023/09/11 05:43:52;;;;;;;21.83;14.45;;;;;;;26.02;64.83;101322.06;5011638;28;20030;-39
2023/09/11 05:46:17;;;;;;;21.15;13.88;;;;;;;26.13;64.68;101324.25;5011019;28;20628;-44
2023/09/11 05:48:43;;;;;;;20.52;13.70;;;;;;;26.25;64.37;101327.28;5011429;28;20137;-42
2023/09/11 05:51:08;;;;;;;21.60;14.00;;;;;;;26.37;64.10;101335.69;5010627;28;20088;-42
2023/09/11 05:53:34;;;;;;;21.00;14.05;;;;;;;26.47;63.56;101339.72;5011483;28;20480;-41
2023/09/11 05:56:00;;;;;;;27.10;14.73;;;;;;;26.52;63.28;101343.03;5010924;28;20038;-41
2023/09/11 05:58:25;;;;;;;20.48;14.30;;;;;;;26.60;63.11;101349.75;5011398;28;20052;-39
2023/09/11 06:00:51;;;;;;;22.77;14.73;;;;;;;26.70;62.88;101344.88;5010805;28;20044;-40
2023/09/11 06:03:17;;;;;;;27.98;16.00;;;;;;;26.67;62.80;101345.88;5010597;28;20030;-40
2023/09/11 06:05:43;;;;;;;24.88;16.25;;;;;;;26.72;62.48;101350.13;5011122;28;20084;-43
2023/09/11 06:08:08;;;;;;;24.50;16.42;;;;;;;26.77;62.66;101358.84;5010514;28;20057;-43
2023/09/11 06:10:37;;;;;;;31.17;17.05;;;;;;;26.82;62.50;101355.00;5011016;28;20488;-39
2023/09/11 06:13:02;;;;;;;30.75;16.23;;;;;;;26.89;62.45;101356.50;5011056;28;20508;-45
2023/09/11 06:15:29;;;;;;;24.27;16.17;;;;;;;26.98;62.07;101355.19;5010686;28;20122;-46
2023/09/11 06:17:55;;;;;;;25.55;17.13;;;;;;;27.09;62.00;101357.34;5009028;28;20049;-44
2023/09/11 06:20:21;;;;;;;24.38;16.98;;;;;;;27.09;61.90;101355.53;5010202;28;20038;-42
2023/09/11 06:22:47;;;;;;;31.15;18.92;;;;;;;26.99;62.25;101349.78;5009935;28;20488;-44
2023/09/11 06:25:12;;;;;;;28.20;18.95;;;;;;;26.92;62.77;101360.81;5010415;28;20169;-40
2023/09/11 06:27:37;;;;;;;28.20;20.00;;;;;;;26.95;62.69;101358.03;5011262;28;20046;-43
2023/09/11 06:30:05;;;;;;;29.38;20.05;;;;;;;27.02;63.19;101349.59;5010508;28;20483;-40
2023/09/11 06:32:32;;;;;;;32.90;20.35;;;;;;;27.33;61.65;101343.66;5010814;28;20038;-42
2023/09/11 06:34:57;;;;;;;32.38;21.63;;;;;;;27.26;61.13;101347.59;5009239;28;20041;-47
2023/09/11 06:37:22;;;;;;;34.25;22.40;;;;;;;27.12;62.18;101349.19;5010097;28;20034;-40
2023/09/11 06:39:50;;;;;;;33.90;21.90;;;;;;;27.19;62.12;101356.00;5010297;28;20092;-42
2023/09/11 06:42:23;;;;;;;32.83;21.00;;;;;;;27.13;62.58;101350.94;5010190;28;20128;-39
2023/09/11 06:44:50;;;;;;;33.78;21.48;;;;;;;27.53;61.97;101345.38;5010611;28;20132;-40
2023/09/11 06:47:16;;;;;;;33.80;21.80;;;;;;;28.41;59.25;101346.22;5010028;28;20033;-45
2023/09/11 06:49:41;;;;;;;33.83;22.27;;;;;;;29.31;54.54;101342.13;5010589;28;20057;-43
2023/09/11 06:52:07;;;;;;;35.92;21.95;;;;;;;29.96;53.78;101356.25;5010285;28;20030;-38
2023/09/11 06:54:32;;;;;;;32.65;20.45;;;;;;;30.66;51.38;101343.03;5010394;28;20629;-46
2023/09/11 06:56:57;;;;;;;32.05;21.10;;;;;;;31.20;49.71;101354.84;5010555;28;20495;-41
2023/09/11 06:59:23;;;;;;;31.08;20.58;;;;;;;31.24;48.53;101356.34;5009869;28;20116;-41
2023/09/11 07:01:48;;;;;;;34.70;21.38;;;;;;;31.15;49.49;101363.22;5010379;28;20068;-45
2023/09/11 07:04:14;;;;;;;28.25;19.98;;;;;;;30.67;49.83;101358.25;5010569;28;20046;-40
2023/09/11 07:06:40;;;;;;;33.42;20.42;;;;;;;30.74;50.31;101365.81;5010839;28;20088;-41
2023/09/11 07:09:07;;;;;;;32.20;19.90;;;;;;;31.30;48.29;101356.81;5009851;28;20054;-44
2023/09/11 07:11:32;;;;;;;27.38;19.85;;;;;;;31.59;46.83;101352.25;5010180;28;20400;-41
2023/09/11 07:13:58;;;;;;;29.40;19.27;;;;;;;31.11;48.80;101360.84;5010082;28;20037;-41
2023/09/11 07:16:24;;;;;;;32.70;19.35;;;;;;;31.01;49.51;101361.38;5009977;28;20037;-44
2023/09/11 07:18:50;;;;;;;28.85;17.88;;;;;;;31.35;48.33;101370.00;5010242;28;20068;-43
2023/09/11 07:21:15;;;;;;;27.13;18.65;;;;;;;30.40;50.57;101367.03;5009180;28;20041;-45
2023/09/11 07:23:41;;;;;;;29.65;18.67;;;;;;;30.81;49.63;101366.28;5009818;28;20046;-45
2023/09/11 07:26:06;;;;;;;24.73;17.40;;;;;;;31.48;47.21;101362.81;5009553;28;20034;-41
2023/09/11 07:28:33;;;;;;;24.90;16.60;;;;;;;31.22;49.22;101364.56;5010626;28;20065;-44
2023/09/11 07:30:58;;;;;;;26.75;17.15;;;;;;;30.35;50.64;101369.13;5011812;28;20052;-42
2023/09/11 07:33:24;;;;;;;23.05;16.20;;;;;;;31.40;47.34;101366.03;5011306;28;20034;-45
2023/09/11 07:35:49;;;;;;;21.70;15.13;;;;;;;31.40;46.71;101365.19;5011369;28;20041;-43
2023/09/11 07:38:14;;;;;;;26.70;15.10;;;;;;;31.07;47.70;101365.53;5011177;28;20631;-40
2023/09/11 07:40:40;;;;;;;24.98;15.07;;;;;;;30.32;50.27;101366.63;5009660;28;20053;-41
2023/09/11 07:43:05;;;;;;;27.20;15.45;;;;;;;29.87;51.44;101372.06;5009138;28;20184;-47
2023/09/11 07:45:30;;;;;;;27.17;16.15;;;;;;;29.46;52.81;101375.31;5009696;28;20042;-48
2023/09/11 07:47:56;;;;;;;26.80;15.80;;;;;;;28.79;55.28;101376.38;5009690;28;20034;-41
2023/09/11 07:50:22;;;;;;;23.33;14.45;;;;;;;28.73;55.25;101375.81;5008931;28;20615;-41
2023/09/11 07:52:47;;;;;;;23.75;13.57;;;;;;;28.71;54.80;101381.25;5009618;28;20068;-45
2023/09/11 07:55:14;;;;;;;17.98;13.23;;;;;;;28.51;55.80;101371.59;5009235;28;20058;-40
2023/09/11 07:57:40;;;;;;;24.98;12.65;;;;;;;28.62;55.26;101379.06;5009570;28;20552;-43
2023/09/11 08:00:07;;;;;;;17.77;12.25;;;;;;;28.03;56.83;101382.16;5009495;28;20148;-42
2023/09/11 08:02:33;;;;;;;20.60;11.07;;;;;;;28.14;55.93;101382.50;5010238;28;20116;-40
2023/09/11 08:04:58;;;;;;;18.67;10.68;;;;;;;28.46;55.93;101387.06;5010075;28;20034;-41
2023/09/11 08:07:24;;;;;;;25.30;10.90;;;;;;;27.86;57.16;101388.41;5009684;28;20504;-43
2023/09/11 08:09:51;;;;;;;17.85;10.43;;;;;;;28.44;56.36;101394.31;5008922;28;20054;-43
2023/09/11 08:12:17;;;;;;;22.45;9.68;;;;;;;28.29;55.06;101399.63;5009029;28;20033;-42
2023/09/11 08:14:44;;;;;;;17.67;9.75;;;;;;;28.43;55.09;101402.44;5008944;28;20045;-42
2023/09/11 08:17:09;;;;;;;14.57;9.13;;;;;;;28.28;55.54;101408.63;5009363;28;20064;-45
2023/09/11 08:19:35;;;;;;;16.80;9.27;;;;;;;28.27;56.03;101398.84;5009695;28;20385;-43
2023/09/11 08:22:00;;;;;;;15.27;9.35;;;;;;;28.21;56.21;101406.25;5009295;28;20124;-47
2023/09/11 08:24:25;;;;;;;13.73;8.60;;;;;;;28.75;54.52;101407.00;5008981;28;20683;-39
2023/09/11 08:26:51;;;;;;;12.30;8.25;;;;;;;28.76;53.38;101410.56;5009541;28;20185;-44
2023/09/11 08:29:17;;;;;;;22.20;8.40;;;;;;;28.85;53.76;101413.59;5008954;28;20045;-44
2023/09/11 08:31:43;;;;;;;13.35;8.07;;;;;;;28.59;53.33;101411.44;5009350;28;20038;-42
2023/09/11 08:34:08;;;;;;;16.23;7.75;;;;;;;28.49;54.60;101405.66;5008576;28;20041;-42
2023/09/11 08:36:34;;;;;;;14.80;8.23;;;;;;;28.30;55.21;101401.38;5009775;28;20045;-41
2023/09/11 08:38:59;;;;;;;12.15;8.32;;;;;;;28.23;55.37;101411.56;5009117;28;20034;-39
2023/09/11 08:41:25;;;;;;;13.55;8.52;;;;;;;28.25;54.91;101412.31;5010906;28;20104;-41
2023/09/11 08:43:51;;;;;;;14.10;8.38;;;;;;;28.31;55.46;101406.63;5013025;28;20526;-47
2023/09/11 08:46:18;;;;;;;16.48;8.48;;;;;;;28.44;55.73;101406.88;5012460;28;20100;-41
2023/09/11 08:48:45;;;;;;;15.50;8.55;;;;;;;28.35;55.49;101410.91;5013020;28;20125;-46
2023/09/11 08:51:29;;;;;;;14.75;8.43;;;;;;;28.29;56.18;101402.31;5012258;28;20490;-40
2023/09/11 08:53:56;;;;;;;13.82;8.40;;;;;;;28.60;55.49;101407.81;5012790;28;20034;-41
2023/09/11 08:56:21;;;;;;;15.48;9.30;;;;;;;28.49;56.17;101418.22;5012516;28;20050;-39
2023/09/11 08:58:50;;;;;;;16.27;9.38;;;;;;;28.74;55.59;101404.41;5012496;28;20097;-47
2023/09/11 09:01:16;;;;;;;18.63;9.25;;;;;;;28.45;56.81;101412.16;5012212;28;20129;-43
2023/09/11 09:03:42;;;;;;;16.75;8.95;;;;;;;28.41;57.41;101410.59;5013058;28;20038;-41
2023/09/11 09:06:08;;;;;;;13.82;9.23;;;;;;;28.01;57.35;101406.38;5012969;28;20042;-43
2023/09/11 09:08:35;;;;;;;17.50;9.02;;;;;;;28.52;56.02;101410.91;5013018;28;20033;-41
2023/09/11 09:11:01;;;;;;;16.73;8.95;;;;;;;28.29;56.85;101410.38;5012181;28;20064;-42
2023/09/11 09:13:27;;;;;;;19.13;9.25;;;;;;;28.47;56.69;101417.44;5012704;28;20096;-41
2023/09/11 09:15:52;;;;;;;16.17;8.85;;;;;;;28.64;56.54;101423.66;5012330;28;20439;-45
2023/09/11 09:18:18;;;;;;;16.55;9.68;;;;;;;28.59;56.77;101424.84;5011823;28;20091;-43
2023/09/11 09:20:43;;;;;;;16.98;9.73;;;;;;;28.35;57.62;101426.13;5011967;28;20066;-44
2023/09/11 09:23:08;;;;;;;18.17;9.45;;;;;;;28.29;56.64;101424.63;5011445;28;20126;-49
2023/09/11 09:25:34;;;;;;;18.60;9.02;;;;;;;28.20;57.05;101425.97;5012068;28;20045;-42
2023/09/11 09:28:00;;;;;;;16.67;9.85;;;;;;;28.28;56.58;101430.94;5011555;28;20034;-43
2023/09/11 09:30:28;;;;;;;15.02;9.43;;;;;;;27.87;57.96;101429.47;5011921;28;20038;-45
2023/09/11 09:32:54;;;;;;;17.50;9.65;;;;;;;28.41;57.14;101428.50;5011784;28;20688;-42
2023/09/11 09:35:30;;;;;;;15.80;8.80;;;;;;;28.56;57.09;101427.69;5011262;28;20045;-43
2023/09/11 09:37:58;;;;;;;16.23;9.43;;;;;;;28.45;57.71;101436.28;5011165;28;20168;-40
2023/09/11 09:40:34;;;;;;;16.25;10.00;;;;;;;28.25;56.96;101429.28;5011039;28;20026;-43
2023/09/11 09:43:01;;;;;;;16.08;9.20;;;;;;;28.53;57.18;101438.59;5011100;28;20443;-44
2023/09/11 09:45:37;;;;;;;16.08;9.40;;;;;;;28.54;56.44;101432.28;5011868;28;20038;-46
2023/09/11 09:48:07;;;;;;;14.90;9.70;;;;;;;28.40;56.67;101424.94;5011263;28;20057;-44
2023/09/11 09:50:54;;;;;;;16.98;9.73;;;;;;;28.75;55.92;101425.78;5011236;28;20468;-42
2023/09/11 09:53:41;;;;;;;17.35;9.07;;;;;;;28.53;57.43;101431.41;5009892;28;20041;-45
2023/09/11 09:56:08;;;;;;;18.92;9.38;;;;;;;28.67;56.13;101417.25;5021122;23;20142;-75
2023/09/11 09:58:39;;;;;;;13.90;9.13;;;;;;;28.70;56.49;101425.16;5031695;28;20037;-75
2023/09/11 10:01:05;;;;;;;16.50;9.30;;;;;;;28.65;56.74;101435.25;5031084;28;20040;-75
2023/09/11 10:04:13;;;;;;;16.33;9.77;;;;;;;28.82;55.66;101421.84;5031401;28;20128;-73
2023/09/11 10:06:38;;;;;;;16.40;9.90;;;;;;;28.73;56.77;101421.44;5011060;28;20545;-74
2023/09/11 10:09:08;;;;;;;16.77;9.25;;;;;;;28.88;55.47;101429.56;5031050;28;20107;-75
2023/09/11 10:11:34;;;;;;;13.40;8.90;;;;;;;29.09;54.81;101435.59;5031934;28;20045;-74
2023/09/11 10:14:03;;;;;;;22.10;10.00;;;;;;;29.24;54.02;101432.03;5031365;28;20445;-74
2023/09/11 10:16:33;;;;;;;18.70;9.90;;;;;;;28.85;55.34;101427.03;5031699;28;20037;-74
2023/09/11 10:19:00;;;;;;;16.60;9.95;;;;;;;28.71;55.75;101434.94;5031598;28;20091;-73
2023/09/11 10:21:30;;;;;;;17.45;9.65;;;;;;;29.17;55.21;101427.09;5031297;28;20088;-73
2023/09/11 10:23:58;;;;;;;21.42;11.35;;;;;;;28.69;57.26;101419.84;5031338;28;20751;-73
2023/09/11 10:26:34;;;;;;;18.33;11.20;;;;;;;28.34;58.34;101427.06;5030933;28;20045;-73
2023/09/11 10:29:09;;;;;;;17.98;11.43;;;;;;;28.54;56.86;101426.91;5030418;28;20163;-74
2023/09/11 10:31:58;;;;;;;20.05;11.73;;;;;;;28.50;58.22;101425.31;5031237;28;20048;-74
2023/09/11 10:34:25;;;;;;;25.13;13.05;;;;;;;28.41;58.39;101424.00;5030699;28;20175;-74
2023/09/11 10:36:56;;;;;;;23.98;12.05;;;;;;;28.17;59.71;101419.91;5031473;28;20044;-74
2023/09/11 10:39:29;;;;;;;21.88;11.95;;;;;;;28.41;59.01;101431.19;5030730;28;20084;-73
2023/09/11 10:41:54;;;;;;;22.48;13.27;;;;;;;28.45;58.47;101430.06;5031164;28;20502;-73
2023/09/11 10:44:20;;;;;;;21.15;13.00;;;;;;;28.35;59.89;101437.72;5030523;28;20064;-75
2023/09/11 10:46:49;;;;;;;20.88;11.93;;;;;;;28.61;58.84;101439.91;5030654;28;20678;-74
2023/09/11 10:49:22;;;;;;;24.45;13.50;;;;;;;28.12;60.42;101440.66;5030495;28;20041;-75
2023/09/11 10:51:49;;;;;;;27.65;15.32;;;;;;;28.10;59.90;101446.13;5031131;28;20042;-74
2023/09/11 10:54:22;;;;;;;21.67;14.38;;;;;;;27.93;60.83;101446.09;5030219;28;20087;-79
2023/09/11 10:56:59;;;;;;;26.48;15.18;;;;;;;27.62;61.60;101446.75;5031535;28;20422;-77
2023/09/11 10:59:25;;;;;;;30.20;15.60;;;;;;;27.81;60.89;101436.84;5029841;28;20128;-72
2023/09/11 11:01:53;;;;;;;26.92;16.27;;;;;;;27.70;61.68;101446.34;5030741;28;20173;-74
2023/09/11 11:04:24;;;;;;;25.80;15.55;;;;;;;27.77;61.70;101442.44;5029621;28;20041;-78
2023/09/11 11:06:55;;;;;;;28.02;16.50;;;;;;;27.40;63.71;101451.34;5030849;28;20049;-78
2023/09/11 11:09:32;;;;;;;27.15;15.80;;;;;;;28.06;62.24;101455.25;5030221;28;20037;-75
2023/09/11 11:12:06;;;;;;;27.88;16.60;;;;;;;28.62;59.16;101451.50;5030630;28;20423;-74